sensor_id;sensor_type;location;lat;lon;timestamp;temperature;humidity
5689;DHT22;2869;50.432;8.680;2024-03-22T00:00:44;9.00;99.90
5689;DHT22;2869;50.432;8.680;2024-03-22T00:03:10;9.00;99.90
5689;DHT22;2869;50.432;8.680;2024-03-22T00:05:36;9.00;99.90
5689;DHT22;2869;50.432;8.680;2024-03-22T00:08:02;9.00;99.90
5689;DHT22;2869;50.432;8.680;2024-03-22T00:10:28;9.00;99.90
5689;DHT22;2869;50.432;8.680;2024-03-22T00:12:54;9.10;99.90
5689;DHT22;2869;50.432;8.680;2024-03-22T00:15:20;9.10;99.90
5689;DHT22;2869;50.432;8.680;2024-03-22T00:17:47;9.10;99.90
5689;DHT22;2869;50.432;8.680;2024-03-22T00:20:14;9.10;99.90
5689;DHT22;2869;50.432;8.680;2024-03-22T00:22:39;9.00;99.90
5689;DHT22;2869;50.432;8.680;2024-03-22T00:25:06;9.00;99.90
5689;DHT22;2869;50.432;8.680;2024-03-22T00:27:32;9.00;99.90
5689;DHT22;2869;50.432;8.680;2024-03-22T00:29:58;8.90;99.90
5689;DHT22;2869;50.432;8.680;2024-03-22T00:32:24;8.90;99.90
5689;DHT22;2869;50.432;8.680;2024-03-22T00:34:51;8.80;99.90
5689;DHT22;2869;50.432;8.680;2024-03-22T00:37:17;8.70;99.90
5689;DHT22;2869;50.432;8.680;2024-03-22T00:39:43;8.70;99.90
5689;DHT22;2869;50.432;8.680;2024-03-22T00:42:09;8.60;99.90
5689;DHT22;2869;50.432;8.680;2024-03-22T00:44:36;8.60;99.90
5689;DHT22;2869;50.432;8.680;2024-03-22T00:47:01;8.60;99.90
5689;DHT22;2869;50.432;8.680;2024-03-22T00:49:28;8.50;99.90
5689;DHT22;2869;50.432;8.680;2024-03-22T00:51:55;8.40;99.90
5689;DHT22;2869;50.432;8.680;2024-03-22T00:54:22;8.40;99.90
5689;DHT22;2869;50.432;8.680;2024-03-22T00:56:47;8.40;99.90
5689;DHT22;2869;50.432;8.680;2024-03-22T00:59:14;8.40;99.90
5689;DHT22;2869;50.432;8.680;2024-03-22T01:01:39;8.40;99.90
5689;DHT22;2869;50.432;8.680;2024-03-22T01:04:07;8.40;99.90
5689;DHT22;2869;50.432;8.680;2024-03-22T01:06:34;8.30;99.90
5689;DHT22;2869;50.432;8.680;2024-03-22T01:09:01;8.30;99.90
5689;DHT22;2869;50.432;8.680;2024-03-22T01:11:28;8.30;99.90
5689;DHT22;2869;50.432;8.680;2024-03-22T01:13:55;8.30;99.90
5689;DHT22;2869;50.432;8.680;2024-03-22T01:16:20;8.30;99.90
5689;DHT22;2869;50.432;8.680;2024-03-22T01:18:47;8.30;99.90
5689;DHT22;2869;50.432;8.680;2024-03-22T01:21:13;8.20;99.90
5689;DHT22;2869;50.432;8.680;2024-03-22T01:23:40;8.20;99.90
5689;DHT22;2869;50.432;8.680;2024-03-22T01:26:07;8.20;99.90
5689;DHT22;2869;50.432;8.680;2024-03-22T01:28:33;8.20;99.90
5689;DHT22;2869;50.432;8.680;2024-03-22T01:30:59;8.10;99.90
5689;DHT22;2869;50.432;8.680;2024-03-22T01:33:25;8.10;99.90
5689;DHT22;2869;50.432;8.680;2024-03-22T01:35:51;8.10;99.90
5689;DHT22;2869;50.432;8.680;2024-03-22T01:38:17;8.10;99.90
5689;DHT22;2869;50.432;8.680;2024-03-22T01:40:43;8.00;99.90
5689;DHT22;2869;50.432;8.680;2024-03-22T01:43:12;8.00;99.90
5689;DHT22;2869;50.432;8.680;2024-03-22T01:45:37;7.90;99.90
5689;DHT22;2869;50.432;8.680;2024-03-22T01:48:04;7.90;99.90
5689;DHT22;2869;50.432;8.680;2024-03-22T01:50:29;7.90;99.90
5689;DHT22;2869;50.432;8.680;2024-03-22T01:52:56;7.90;99.90
5689;DHT22;2869;50.432;8.680;2024-03-22T01:55:22;7.90;99.90
5689;DHT22;2869;50.432;8.680;2024-03-22T01:57:49;7.80;99.90
5689;DHT22;2869;50.432;8.680;2024-03-22T02:00:18;7.80;99.90
5689;DHT22;2869;50.432;8.680;2024-03-22T02:02:45;7.80;99.90
5689;DHT22;2869;50.432;8.680;2024-03-22T02:05:13;7.80;99.90
5689;DHT22;2869;50.432;8.680;2024-03-22T02:07:41;7.70;99.90
5689;DHT22;2869;50.432;8.680;2024-03-22T02:10:07;7.70;99.90
5689;DHT22;2869;50.432;8.680;2024-03-22T02:12:36;7.70;99.90
5689;DHT22;2869;50.432;8.680;2024-03-22T02:15:01;7.60;99.90
5689;DHT22;2869;50.432;8.680;2024-03-22T02:17:29;7.60;99.90
5689;DHT22;2869;50.432;8.680;2024-03-22T02:19:55;7.60;99.90
5689;DHT22;2869;50.432;8.680;2024-03-22T02:22:21;7.60;99.90
5689;DHT22;2869;50.432;8.680;2024-03-22T02:24:48;7.50;99.90
5689;DHT22;2869;50.432;8.680;2024-03-22T02:27:15;7.50;99.90
5689;DHT22;2869;50.432;8.680;2024-03-22T02:29:40;7.50;99.90
5689;DHT22;2869;50.432;8.680;2024-03-22T02:32:07;7.60;99.90
5689;DHT22;2869;50.432;8.680;2024-03-22T02:34:32;7.50;99.90
5689;DHT22;2869;50.432;8.680;2024-03-22T02:36:59;7.50;99.90
5689;DHT22;2869;50.432;8.680;2024-03-22T02:39:24;7.50;99.90
5689;DHT22;2869;50.432;8.680;2024-03-22T02:41:52;7.40;99.90
5689;DHT22;2869;50.432;8.680;2024-03-22T02:44:18;7.40;99.90
5689;DHT22;2869;50.432;8.680;2024-03-22T02:46:44;7.30;99.90
5689;DHT22;2869;50.432;8.680;2024-03-22T02:49:10;7.30;99.90
5689;DHT22;2869;50.432;8.680;2024-03-22T02:51:37;7.20;99.90
5689;DHT22;2869;50.432;8.680;2024-03-22T02:54:02;7.20;99.90
5689;DHT22;2869;50.432;8.680;2024-03-22T02:56:29;7.20;99.90
5689;DHT22;2869;50.432;8.680;2024-03-22T02:58:55;7.20;99.90
5689;DHT22;2869;50.432;8.680;2024-03-22T03:01:22;7.20;99.90
5689;DHT22;2869;50.432;8.680;2024-03-22T03:03:47;7.20;99.90
5689;DHT22;2869;50.432;8.680;2024-03-22T03:06:14;7.10;99.90
5689;DHT22;2869;50.432;8.680;2024-03-22T03:08:40;7.10;99.90
5689;DHT22;2869;50.432;8.680;2024-03-22T03:11:07;7.00;99.90
5689;DHT22;2869;50.432;8.680;2024-03-22T03:13:32;7.00;99.90
5689;DHT22;2869;50.432;8.680;2024-03-22T03:16:00;6.90;99.90
5689;DHT22;2869;50.432;8.680;2024-03-22T03:18:27;6.90;99.90
5689;DHT22;2869;50.432;8.680;2024-03-22T03:20:52;6.90;99.90
5689;DHT22;2869;50.432;8.680;2024-03-22T03:23:19;6.80;99.90
5689;DHT22;2869;50.432;8.680;2024-03-22T03:25:45;6.80;99.90
5689;DHT22;2869;50.432;8.680;2024-03-22T03:28:12;6.80;99.90
5689;DHT22;2869;50.432;8.680;2024-03-22T03:30:38;6.70;99.90
5689;DHT22;2869;50.432;8.680;2024-03-22T03:33:06;6.70;99.90
5689;DHT22;2869;50.432;8.680;2024-03-22T03:35:31;6.60;99.90
5689;DHT22;2869;50.432;8.680;2024-03-22T03:37:58;6.60;99.90
5689;DHT22;2869;50.432;8.680;2024-03-22T03:40:24;6.60;99.90
5689;DHT22;2869;50.432;8.680;2024-03-22T03:42:52;6.60;99.90
5689;DHT22;2869;50.432;8.680;2024-03-22T03:45:17;6.60;99.90
5689;DHT22;2869;50.432;8.680;2024-03-22T03:47:44;6.60;99.90
5689;DHT22;2869;50.432;8.680;2024-03-22T03:50:11;6.60;99.90
5689;DHT22;2869;50.432;8.680;2024-03-22T03:52:38;6.60;99.90
5689;DHT22;2869;50.432;8.680;2024-03-22T03:55:04;6.60;99.90
5689;DHT22;2869;50.432;8.680;2024-03-22T03:57:30;6.60;99.90
5689;DHT22;2869;50.432;8.680;2024-03-22T03:59:56;6.60;99.90
5689;DHT22;2869;50.432;8.680;2024-03-22T04:02:22;6.60;99.90
5689;DHT22;2869;50.432;8.680;2024-03-22T04:04:48;6.60;99.90
5689;DHT22;2869;50.432;8.680;2024-03-22T04:07:19;6.60;99.90
5689;DHT22;2869;50.432;8.680;2024-03-22T04:09:44;6.70;99.90
5689;DHT22;2869;50.432;8.680;2024-03-22T04:12:11;6.70;99.90
5689;DHT22;2869;50.432;8.680;2024-03-22T04:14:36;6.70;99.90
5689;DHT22;2869;50.432;8.680;2024-03-22T04:17:03;6.70;99.90
5689;DHT22;2869;50.432;8.680;2024-03-22T04:19:28;6.70;99.90
5689;DHT22;2869;50.432;8.680;2024-03-22T04:21:55;6.70;99.90
5689;DHT22;2869;50.432;8.680;2024-03-22T04:24:22;6.70;99.90
5689;DHT22;2869;50.432;8.680;2024-03-22T04:26:48;6.70;99.90
5689;DHT22;2869;50.432;8.680;2024-03-22T04:29:14;6.60;99.90
5689;DHT22;2869;50.432;8.680;2024-03-22T04:31:40;6.80;99.90
5689;DHT22;2869;50.432;8.680;2024-03-22T04:34:06;6.80;99.90
5689;DHT22;2869;50.432;8.680;2024-03-22T04:36:32;6.80;99.90
5689;DHT22;2869;50.432;8.680;2024-03-22T04:38:58;6.80;99.90
5689;DHT22;2869;50.432;8.680;2024-03-22T04:41:26;6.80;99.90
5689;DHT22;2869;50.432;8.680;2024-03-22T04:43:52;6.80;99.90
5689;DHT22;2869;50.432;8.680;2024-03-22T04:46:19;6.80;99.90
5689;DHT22;2869;50.432;8.680;2024-03-22T04:48:44;6.80;99.90
5689;DHT22;2869;50.432;8.680;2024-03-22T04:51:11;6.80;99.90
5689;DHT22;2869;50.432;8.680;2024-03-22T04:53:36;6.80;99.90
5689;DHT22;2869;50.432;8.680;2024-03-22T04:56:03;6.80;99.90
5689;DHT22;2869;50.432;8.680;2024-03-22T04:58:30;6.80;99.90
5689;DHT22;2869;50.432;8.680;2024-03-22T05:00:57;6.90;99.90
5689;DHT22;2869;50.432;8.680;2024-03-22T05:03:23;6.90;99.90
5689;DHT22;2869;50.432;8.680;2024-03-22T05:05:50;6.90;99.90
5689;DHT22;2869;50.432;8.680;2024-03-22T05:08:15;6.80;99.90
5689;DHT22;2869;50.432;8.680;2024-03-22T05:10:42;6.80;99.90
5689;DHT22;2869;50.432;8.680;2024-03-22T05:13:08;6.80;99.90
5689;DHT22;2869;50.432;8.680;2024-03-22T05:15:35;6.80;99.90
5689;DHT22;2869;50.432;8.680;2024-03-22T05:18:01;6.80;99.90
5689;DHT22;2869;50.432;8.680;2024-03-22T05:20:28;6.80;99.90
5689;DHT22;2869;50.432;8.680;2024-03-22T05:22:54;6.80;99.90
5689;DHT22;2869;50.432;8.680;2024-03-22T05:25:20;6.80;99.90
5689;DHT22;2869;50.432;8.680;2024-03-22T05:27:46;6.80;99.90
5689;DHT22;2869;50.432;8.680;2024-03-22T05:30:13;6.80;99.90
5689;DHT22;2869;50.432;8.680;2024-03-22T05:32:40;6.80;99.90
5689;DHT22;2869;50.432;8.680;2024-03-22T05:35:06;6.80;99.90
5689;DHT22;2869;50.432;8.680;2024-03-22T05:37:32;6.80;99.90
5689;DHT22;2869;50.432;8.680;2024-03-22T05:39:59;6.80;99.90
5689;DHT22;2869;50.432;8.680;2024-03-22T05:42:25;6.80;99.90
5689;DHT22;2869;50.432;8.680;2024-03-22T05:44:52;6.80;99.90
5689;DHT22;2869;50.432;8.680;2024-03-22T05:47:18;6.70;99.90
5689;DHT22;2869;50.432;8.680;2024-03-22T05:49:46;6.70;99.90
5689;DHT22;2869;50.432;8.680;2024-03-22T05:52:12;6.70;99.90
5689;DHT22;2869;50.432;8.680;2024-03-22T05:54:38;6.70;99.90
5689;DHT22;2869;50.432;8.680;2024-03-22T05:57:04;6.70;99.90
5689;DHT22;2869;50.432;8.680;2024-03-22T05:59:30;6.80;99.90
5689;DHT22;2869;50.432;8.680;2024-03-22T06:01:57;6.80;99.90
5689;DHT22;2869;50.432;8.680;2024-03-22T06:04:22;6.80;99.90
5689;DHT22;2869;50.432;8.680;2024-03-22T06:06:51;6.80;99.90
5689;DHT22;2869;50.432;8.680;2024-03-22T06:09:16;6.80;99.90
5689;DHT22;2869;50.432;8.680;2024-03-22T06:11:49;6.70;99.90
5689;DHT22;2869;50.432;8.680;2024-03-22T06:14:14;6.70;99.90
5689;DHT22;2869;50.432;8.680;2024-03-22T06:16:41;6.80;99.90
5689;DHT22;2869;50.432;8.680;2024-03-22T06:19:06;6.80;99.90
5689;DHT22;2869;50.432;8.680;2024-03-22T06:21:33;6.80;99.90
5689;DHT22;2869;50.432;8.680;2024-03-22T06:24:00;6.80;99.90
5689;DHT22;2869;50.432;8.680;2024-03-22T06:26:26;6.80;99.90
5689;DHT22;2869;50.432;8.680;2024-03-22T06:28:52;6.90;99.90
5689;DHT22;2869;50.432;8.680;2024-03-22T06:31:18;6.90;99.90
5689;DHT22;2869;50.432;8.680;2024-03-22T06:33:44;7.00;99.90
5689;DHT22;2869;50.432;8.680;2024-03-22T06:36:11;7.10;99.90
5689;DHT22;2869;50.432;8.680;2024-03-22T06:38:36;7.20;99.90
5689;DHT22;2869;50.432;8.680;2024-03-22T06:41:04;7.20;99.90
5689;DHT22;2869;50.432;8.680;2024-03-22T06:43:30;7.30;99.90
5689;DHT22;2869;50.432;8.680;2024-03-22T06:45:56;7.30;99.90
5689;DHT22;2869;50.432;8.680;2024-03-22T06:48:22;7.30;99.90
5689;DHT22;2869;50.432;8.680;2024-03-22T06:50:48;7.30;99.90
5689;DHT22;2869;50.432;8.680;2024-03-22T06:53:14;7.30;99.90
5689;DHT22;2869;50.432;8.680;2024-03-22T06:55:40;7.40;99.90
5689;DHT22;2869;50.432;8.680;2024-03-22T06:58:08;7.40;99.90
5689;DHT22;2869;50.432;8.680;2024-03-22T07:00:34;7.50;99.90
5689;DHT22;2869;50.432;8.680;2024-03-22T07:03:00;7.50;99.90
5689;DHT22;2869;50.432;8.680;2024-03-22T07:05:27;7.50;99.90
5689;DHT22;2869;50.432;8.680;2024-03-22T07:07:53;7.50;99.90
5689;DHT22;2869;50.432;8.680;2024-03-22T07:10:21;7.60;99.90
5689;DHT22;2869;50.432;8.680;2024-03-22T07:12:47;7.60;99.90
5689;DHT22;2869;50.432;8.680;2024-03-22T07:15:15;7.60;99.90
5689;DHT22;2869;50.432;8.680;2024-03-22T07:17:41;7.50;99.90
5689;DHT22;2869;50.432;8.680;2024-03-22T07:20:07;7.50;99.90
5689;DHT22;2869;50.432;8.680;2024-03-22T07:22:33;7.50;99.90
5689;DHT22;2869;50.432;8.680;2024-03-22T07:25:00;7.50;99.90
5689;DHT22;2869;50.432;8.680;2024-03-22T07:27:25;7.50;99.90
5689;DHT22;2869;50.432;8.680;2024-03-22T07:29:54;7.50;99.90
5689;DHT22;2869;50.432;8.680;2024-03-22T07:32:21;7.60;99.90
5689;DHT22;2869;50.432;8.680;2024-03-22T07:34:48;7.60;99.90
5689;DHT22;2869;50.432;8.680;2024-03-22T07:37:13;7.60;99.90
5689;DHT22;2869;50.432;8.680;2024-03-22T07:39:40;7.70;99.90
5689;DHT22;2869;50.432;8.680;2024-03-22T07:42:05;7.70;99.90
5689;DHT22;2869;50.432;8.680;2024-03-22T07:44:32;7.80;99.90
5689;DHT22;2869;50.432;8.680;2024-03-22T07:46:57;7.90;99.90
5689;DHT22;2869;50.432;8.680;2024-03-22T07:49:25;8.10;99.90
5689;DHT22;2869;50.432;8.680;2024-03-22T07:51:51;8.20;99.90
5689;DHT22;2869;50.432;8.680;2024-03-22T07:54:18;8.30;99.90
5689;DHT22;2869;50.432;8.680;2024-03-22T07:56:43;8.30;99.90
5689;DHT22;2869;50.432;8.680;2024-03-22T07:59:10;8.20;99.90
5689;DHT22;2869;50.432;8.680;2024-03-22T08:01:35;8.20;99.90
5689;DHT22;2869;50.432;8.680;2024-03-22T08:04:02;8.20;99.90
5689;DHT22;2869;50.432;8.680;2024-03-22T08:06:29;8.20;99.90
5689;DHT22;2869;50.432;8.680;2024-03-22T08:08:55;8.30;99.90
5689;DHT22;2869;50.432;8.680;2024-03-22T08:11:21;8.30;99.90
5689;DHT22;2869;50.432;8.680;2024-03-22T08:13:47;8.30;99.90
5689;DHT22;2869;50.432;8.680;2024-03-22T08:16:13;8.30;99.90
5689;DHT22;2869;50.432;8.680;2024-03-22T08:18:39;8.40;99.90
5689;DHT22;2869;50.432;8.680;2024-03-22T08:21:05;8.40;99.90
5689;DHT22;2869;50.432;8.680;2024-03-22T08:23:33;8.50;99.90
5689;DHT22;2869;50.432;8.680;2024-03-22T08:25:59;8.50;99.90
5689;DHT22;2869;50.432;8.680;2024-03-22T08:28:25;8.50;99.90
5689;DHT22;2869;50.432;8.680;2024-03-22T08:30:51;8.50;99.90
5689;DHT22;2869;50.432;8.680;2024-03-22T08:33:18;8.60;99.90
5689;DHT22;2869;50.432;8.680;2024-03-22T08:35:43;8.70;99.90
5689;DHT22;2869;50.432;8.680;2024-03-22T08:38:10;8.80;99.90
5689;DHT22;2869;50.432;8.680;2024-03-22T08:40:37;8.90;99.90
5689;DHT22;2869;50.432;8.680;2024-03-22T08:43:04;9.10;99.90
5689;DHT22;2869;50.432;8.680;2024-03-22T08:45:30;9.30;99.90
5689;DHT22;2869;50.432;8.680;2024-03-22T08:47:56;9.40;99.90
5689;DHT22;2869;50.432;8.680;2024-03-22T08:50:22;9.50;99.90
5689;DHT22;2869;50.432;8.680;2024-03-22T08:52:48;9.50;99.90
5689;DHT22;2869;50.432;8.680;2024-03-22T08:55:14;9.60;99.90
5689;DHT22;2869;50.432;8.680;2024-03-22T08:57:42;9.70;99.90
5689;DHT22;2869;50.432;8.680;2024-03-22T09:00:08;10.00;99.90
5689;DHT22;2869;50.432;8.680;2024-03-22T09:02:36;10.40;99.90
5689;DHT22;2869;50.432;8.680;2024-03-22T09:05:02;10.70;99.90
5689;DHT22;2869;50.432;8.680;2024-03-22T09:07:28;11.10;99.90
5689;DHT22;2869;50.432;8.680;2024-03-22T09:09:54;11.30;99.90
5689;DHT22;2869;50.432;8.680;2024-03-22T09:12:21;11.50;99.90
5689;DHT22;2869;50.432;8.680;2024-03-22T09:14:48;11.80;99.90
5689;DHT22;2869;50.432;8.680;2024-03-22T09:17:14;11.90;99.90
5689;DHT22;2869;50.432;8.680;2024-03-22T09:19:40;12.10;99.90
5689;DHT22;2869;50.432;8.680;2024-03-22T09:22:06;12.20;99.90
5689;DHT22;2869;50.432;8.680;2024-03-22T09:24:32;12.50;99.90
5689;DHT22;2869;50.432;8.680;2024-03-22T09:26:58;12.40;99.90
5689;DHT22;2869;50.432;8.680;2024-03-22T09:29:24;12.40;99.90
5689;DHT22;2869;50.432;8.680;2024-03-22T09:31:52;12.30;99.90
5689;DHT22;2869;50.432;8.680;2024-03-22T09:34:17;12.20;99.90
5689;DHT22;2869;50.432;8.680;2024-03-22T09:36:45;12.10;99.90
5689;DHT22;2869;50.432;8.680;2024-03-22T09:39:10;12.00;99.90
5689;DHT22;2869;50.432;8.680;2024-03-22T09:41:39;12.10;99.90
5689;DHT22;2869;50.432;8.680;2024-03-22T09:44:06;12.40;99.90
5689;DHT22;2869;50.432;8.680;2024-03-22T09:46:34;12.50;99.90
5689;DHT22;2869;50.432;8.680;2024-03-22T09:49:01;12.50;99.90
5689;DHT22;2869;50.432;8.680;2024-03-22T09:51:28;12.60;99.90
5689;DHT22;2869;50.432;8.680;2024-03-22T09:53:54;12.60;99.90
5689;DHT22;2869;50.432;8.680;2024-03-22T09:56:21;12.70;99.90
5689;DHT22;2869;50.432;8.680;2024-03-22T09:58:46;12.90;99.90
5689;DHT22;2869;50.432;8.680;2024-03-22T10:01:13;12.90;99.90
5689;DHT22;2869;50.432;8.680;2024-03-22T10:03:39;13.00;99.90
5689;DHT22;2869;50.432;8.680;2024-03-22T10:06:07;13.10;99.90
5689;DHT22;2869;50.432;8.680;2024-03-22T10:08:33;13.30;99.90
5689;DHT22;2869;50.432;8.680;2024-03-22T10:11:01;13.40;99.90
5689;DHT22;2869;50.432;8.680;2024-03-22T10:13:27;13.40;99.90
5689;DHT22;2869;50.432;8.680;2024-03-22T10:15:54;13.50;99.90
5689;DHT22;2869;50.432;8.680;2024-03-22T10:18:19;13.40;99.90
5689;DHT22;2869;50.432;8.680;2024-03-22T10:20:47;13.60;99.90
5689;DHT22;2869;50.432;8.680;2024-03-22T10:23:14;13.80;99.90
5689;DHT22;2869;50.432;8.680;2024-03-22T10:25:41;13.90;99.90
5689;DHT22;2869;50.432;8.680;2024-03-22T10:28:06;14.00;99.90
5689;DHT22;2869;50.432;8.680;2024-03-22T10:30:33;14.30;99.90
5689;DHT22;2869;50.432;8.680;2024-03-22T10:33:00;14.50;99.90
5689;DHT22;2869;50.432;8.680;2024-03-22T10:35:27;14.70;99.90
5689;DHT22;2869;50.432;8.680;2024-03-22T10:37:53;14.90;99.90
5689;DHT22;2869;50.432;8.680;2024-03-22T10:40:21;15.20;99.90
5689;DHT22;2869;50.432;8.680;2024-03-22T10:42:47;15.40;99.90
5689;DHT22;2869;50.432;8.680;2024-03-22T10:45:13;15.70;99.90
5689;DHT22;2869;50.432;8.680;2024-03-22T10:47:39;15.90;99.90
5689;DHT22;2869;50.432;8.680;2024-03-22T10:50:06;16.00;99.90
5689;DHT22;2869;50.432;8.680;2024-03-22T10:52:33;16.10;99.90
5689;DHT22;2869;50.432;8.680;2024-03-22T10:55:00;16.30;99.90
5689;DHT22;2869;50.432;8.680;2024-03-22T10:57:31;16.70;99.90
5689;DHT22;2869;50.432;8.680;2024-03-22T11:00:02;17.00;99.90
5689;DHT22;2869;50.432;8.680;2024-03-22T11:02:28;17.20;99.90
5689;DHT22;2869;50.432;8.680;2024-03-22T11:04:58;17.80;99.90
5689;DHT22;2869;50.432;8.680;2024-03-22T11:07:28;18.10;99.90
5689;DHT22;2869;50.432;8.680;2024-03-22T11:09:55;18.60;99.90
5689;DHT22;2869;50.432;8.680;2024-03-22T11:12:21;19.10;99.90
5689;DHT22;2869;50.432;8.680;2024-03-22T11:14:49;19.50;99.90
5689;DHT22;2869;50.432;8.680;2024-03-22T11:17:16;20.00;99.90
5689;DHT22;2869;50.432;8.680;2024-03-22T11:19:43;20.20;99.90
5689;DHT22;2869;50.432;8.680;2024-03-22T11:22:08;20.50;99.90
5689;DHT22;2869;50.432;8.680;2024-03-22T11:24:37;20.30;99.90
5689;DHT22;2869;50.432;8.680;2024-03-22T11:27:02;20.40;99.90
5689;DHT22;2869;50.432;8.680;2024-03-22T11:29:29;20.20;99.90
5689;DHT22;2869;50.432;8.680;2024-03-22T11:31:56;20.20;99.90
5689;DHT22;2869;50.432;8.680;2024-03-22T11:34:22;20.30;99.90
5689;DHT22;2869;50.432;8.680;2024-03-22T11:36:48;20.00;99.90
5689;DHT22;2869;50.432;8.680;2024-03-22T11:39:16;19.80;99.90
5689;DHT22;2869;50.432;8.680;2024-03-22T11:41:43;19.50;99.90
5689;DHT22;2869;50.432;8.680;2024-03-22T11:44:09;19.50;99.90
5689;DHT22;2869;50.432;8.680;2024-03-22T11:46:36;19.30;99.90
5689;DHT22;2869;50.432;8.680;2024-03-22T11:49:04;19.20;99.90
5689;DHT22;2869;50.432;8.680;2024-03-22T11:51:30;18.90;99.90
5689;DHT22;2869;50.432;8.680;2024-03-22T11:53:56;18.90;99.90
5689;DHT22;2869;50.432;8.680;2024-03-22T11:56:24;18.80;99.90
5689;DHT22;2869;50.432;8.680;2024-03-22T11:58:57;18.70;99.90
5689;DHT22;2869;50.432;8.680;2024-03-22T12:01:23;18.60;99.90
5689;DHT22;2869;50.432;8.680;2024-03-22T12:03:49;18.30;99.90
5689;DHT22;2869;50.432;8.680;2024-03-22T12:06:17;18.10;99.90
5689;DHT22;2869;50.432;8.680;2024-03-22T12:08:42;17.90;99.90
5689;DHT22;2869;50.432;8.680;2024-03-22T12:11:09;17.80;99.90
5689;DHT22;2869;50.432;8.680;2024-03-22T12:13:35;17.70;99.90
5689;DHT22;2869;50.432;8.680;2024-03-22T12:16:03;17.70;99.90
5689;DHT22;2869;50.432;8.680;2024-03-22T12:18:29;17.70;99.90
5689;DHT22;2869;50.432;8.680;2024-03-22T12:20:55;17.50;99.90
5689;DHT22;2869;50.432;8.680;2024-03-22T12:23:22;17.40;99.90
5689;DHT22;2869;50.432;8.680;2024-03-22T12:25:49;17.40;99.90
5689;DHT22;2869;50.432;8.680;2024-03-22T12:28:15;17.40;99.90
5689;DHT22;2869;50.432;8.680;2024-03-22T12:30:41;17.40;99.90
5689;DHT22;2869;50.432;8.680;2024-03-22T12:33:07;17.30;99.90
5689;DHT22;2869;50.432;8.680;2024-03-22T12:35:35;17.40;99.90
5689;DHT22;2869;50.432;8.680;2024-03-22T12:38:01;17.40;99.90
5689;DHT22;2869;50.432;8.680;2024-03-22T12:40:29;17.40;99.90
5689;DHT22;2869;50.432;8.680;2024-03-22T12:42:55;17.30;99.90
5689;DHT22;2869;50.432;8.680;2024-03-22T12:45:21;17.40;99.90
5689;DHT22;2869;50.432;8.680;2024-03-22T12:47:47;17.40;99.90
5689;DHT22;2869;50.432;8.680;2024-03-22T12:50:14;17.40;99.90
5689;DHT22;2869;50.432;8.680;2024-03-22T12:52:40;17.50;99.90
5689;DHT22;2869;50.432;8.680;2024-03-22T12:55:07;17.70;99.90
5689;DHT22;2869;50.432;8.680;2024-03-22T12:57:34;17.70;99.90
5689;DHT22;2869;50.432;8.680;2024-03-22T13:00:00;17.70;99.90
5689;DHT22;2869;50.432;8.680;2024-03-22T13:02:26;17.60;99.90
5689;DHT22;2869;50.432;8.680;2024-03-22T13:04:53;17.70;99.90
5689;DHT22;2869;50.432;8.680;2024-03-22T13:07:19;17.70;99.90
5689;DHT22;2869;50.432;8.680;2024-03-22T13:09:45;17.80;99.90
5689;DHT22;2869;50.432;8.680;2024-03-22T13:12:11;17.80;99.90
5689;DHT22;2869;50.432;8.680;2024-03-22T13:14:39;17.70;99.90
5689;DHT22;2869;50.432;8.680;2024-03-22T13:17:04;17.60;99.90
5689;DHT22;2869;50.432;8.680;2024-03-22T13:19:31;17.50;99.90
5689;DHT22;2869;50.432;8.680;2024-03-22T13:21:56;17.40;99.90
5689;DHT22;2869;50.432;8.680;2024-03-22T13:24:23;17.30;99.90
5689;DHT22;2869;50.432;8.680;2024-03-22T13:26:49;17.20;99.90
5689;DHT22;2869;50.432;8.680;2024-03-22T13:29:16;17.20;99.90
5689;DHT22;2869;50.432;8.680;2024-03-22T13:31:43;17.00;99.90
5689;DHT22;2869;50.432;8.680;2024-03-22T13:34:09;16.90;99.90
5689;DHT22;2869;50.432;8.680;2024-03-22T13:36:35;16.90;99.90
5689;DHT22;2869;50.432;8.680;2024-03-22T13:39:03;16.80;99.90
5689;DHT22;2869;50.432;8.680;2024-03-22T13:41:28;16.70;99.90
5689;DHT22;2869;50.432;8.680;2024-03-22T13:43:55;16.80;99.90
5689;DHT22;2869;50.432;8.680;2024-03-22T13:46:21;16.80;99.90
5689;DHT22;2869;50.432;8.680;2024-03-22T13:48:48;16.70;99.90
5689;DHT22;2869;50.432;8.680;2024-03-22T13:51:14;16.60;99.90
5689;DHT22;2869;50.432;8.680;2024-03-22T13:53:41;16.50;99.90
5689;DHT22;2869;50.432;8.680;2024-03-22T13:56:07;16.50;99.90
5689;DHT22;2869;50.432;8.680;2024-03-22T13:58:34;16.40;99.90
5689;DHT22;2869;50.432;8.680;2024-03-22T14:01:00;16.40;99.90
5689;DHT22;2869;50.432;8.680;2024-03-22T14:03:27;16.40;99.90
5689;DHT22;2869;50.432;8.680;2024-03-22T14:05:54;16.40;99.90
5689;DHT22;2869;50.432;8.680;2024-03-22T14:08:20;16.20;99.90
5689;DHT22;2869;50.432;8.680;2024-03-22T14:10:46;16.20;99.90
5689;DHT22;2869;50.432;8.680;2024-03-22T14:13:12;16.10;99.90
5689;DHT22;2869;50.432;8.680;2024-03-22T14:15:38;16.10;99.90
5689;DHT22;2869;50.432;8.680;2024-03-22T14:18:04;16.10;99.90
5689;DHT22;2869;50.432;8.680;2024-03-22T14:20:30;16.00;99.90
5689;DHT22;2869;50.432;8.680;2024-03-22T14:22:58;16.00;99.90
5689;DHT22;2869;50.432;8.680;2024-03-22T14:25:23;16.00;99.90
5689;DHT22;2869;50.432;8.680;2024-03-22T14:27:50;16.00;99.90
5689;DHT22;2869;50.432;8.680;2024-03-22T14:30:15;16.00;99.90
5689;DHT22;2869;50.432;8.680;2024-03-22T14:32:43;16.00;99.90
5689;DHT22;2869;50.432;8.680;2024-03-22T14:35:09;16.00;99.90
5689;DHT22;2869;50.432;8.680;2024-03-22T14:37:36;16.00;99.90
5689;DHT22;2869;50.432;8.680;2024-03-22T14:40:04;16.00;99.90
5689;DHT22;2869;50.432;8.680;2024-03-22T14:42:32;15.90;99.90
5689;DHT22;2869;50.432;8.680;2024-03-22T14:44:58;15.90;99.90
5689;DHT22;2869;50.432;8.680;2024-03-22T14:47:25;15.80;99.90
5689;DHT22;2869;50.432;8.680;2024-03-22T14:49:50;15.80;99.90
5689;DHT22;2869;50.432;8.680;2024-03-22T14:52:17;15.80;99.90
5689;DHT22;2869;50.432;8.680;2024-03-22T14:54:43;15.80;99.90
5689;DHT22;2869;50.432;8.680;2024-03-22T14:57:11;15.70;99.90
5689;DHT22;2869;50.432;8.680;2024-03-22T14:59:36;15.70;99.90
5689;DHT22;2869;50.432;8.680;2024-03-22T15:02:03;15.70;99.90
5689;DHT22;2869;50.432;8.680;2024-03-22T15:04:28;15.70;99.90
5689;DHT22;2869;50.432;8.680;2024-03-22T15:06:55;15.70;99.90
5689;DHT22;2869;50.432;8.680;2024-03-22T15:09:20;15.60;99.90
5689;DHT22;2869;50.432;8.680;2024-03-22T15:11:48;15.50;99.90
5689;DHT22;2869;50.432;8.680;2024-03-22T15:14:16;15.50;99.90
5689;DHT22;2869;50.432;8.680;2024-03-22T15:16:43;15.50;99.90
5689;DHT22;2869;50.432;8.680;2024-03-22T15:19:08;15.50;99.90
5689;DHT22;2869;50.432;8.680;2024-03-22T15:21:35;15.60;99.90
5689;DHT22;2869;50.432;8.680;2024-03-22T15:24:01;15.60;99.90
5689;DHT22;2869;50.432;8.680;2024-03-22T15:26:27;15.60;99.90
5689;DHT22;2869;50.432;8.680;2024-03-22T15:28:53;15.70;99.90
5689;DHT22;2869;50.432;8.680;2024-03-22T15:31:21;15.80;99.90
5689;DHT22;2869;50.432;8.680;2024-03-22T15:33:47;15.80;99.90
5689;DHT22;2869;50.432;8.680;2024-03-22T15:36:13;15.90;99.90
5689;DHT22;2869;50.432;8.680;2024-03-22T15:38:39;15.90;99.90
5689;DHT22;2869;50.432;8.680;2024-03-22T15:41:05;15.90;99.90
5689;DHT22;2869;50.432;8.680;2024-03-22T15:43:31;15.90;99.90
5689;DHT22;2869;50.432;8.680;2024-03-22T15:45:58;15.90;99.90
5689;DHT22;2869;50.432;8.680;2024-03-22T15:48:25;15.80;99.90
5689;DHT22;2869;50.432;8.680;2024-03-22T15:50:51;15.80;99.90
5689;DHT22;2869;50.432;8.680;2024-03-22T15:53:17;15.80;99.90
5689;DHT22;2869;50.432;8.680;2024-03-22T15:55:43;15.80;99.90
5689;DHT22;2869;50.432;8.680;2024-03-22T15:58:09;15.80;99.90
5689;DHT22;2869;50.432;8.680;2024-03-22T16:00:35;15.90;99.90
5689;DHT22;2869;50.432;8.680;2024-03-22T16:03:01;15.80;99.90